sensor_id;sensor_type;location;lat;lon;timestamp;P1;durP1;ratioP1;P2;durP2;ratioP2
4738;SDS011;2383;48.632;10.156;2023-07-13T00:02:01;7.47;;;3.60;;
4738;SDS011;2383;48.632;10.156;2023-07-13T00:06:03;5.95;;;3.42;;
4738;SDS011;2383;48.632;10.156;2023-07-13T00:10:05;4.93;;;3.40;;
4738;SDS011;2383;48.632;10.156;2023-07-13T00:14:08;4.95;;;3.20;;
4738;SDS011;2383;48.632;10.156;2023-07-13T00:18:11;5.65;;;3.33;;
4738;SDS011;2383;48.632;10.156;2023-07-13T00:22:13;4.63;;;2.90;;
4738;SDS011;2383;48.632;10.156;2023-07-13T00:26:15;5.68;;;3.42;;
4738;SDS011;2383;48.632;10.156;2023-07-13T00:30:18;11.18;;;3.70;;
4738;SDS011;2383;48.632;10.156;2023-07-13T00:34:20;6.85;;;3.30;;
4738;SDS011;2383;48.632;10.156;2023-07-13T00:38:23;7.82;;;3.35;;
4738;SDS011;2383;48.632;10.156;2023-07-13T00:42:25;6.95;;;3.67;;
4738;SDS011;2383;48.632;10.156;2023-07-13T00:46:31;8.65;;;3.33;;
4738;SDS011;2383;48.632;10.156;2023-07-13T00:50:36;4.32;;;3.20;;
4738;SDS011;2383;48.632;10.156;2023-07-13T00:54:41;6.78;;;4.38;;
4738;SDS011;2383;48.632;10.156;2023-07-13T00:58:46;3.67;;;3.17;;
4738;SDS011;2383;48.632;10.156;2023-07-13T01:02:48;6.32;;;3.45;;
4738;SDS011;2383;48.632;10.156;2023-07-13T01:06:51;4.85;;;3.35;;
4738;SDS011;2383;48.632;10.156;2023-07-13T01:10:56;9.13;;;3.20;;
4738;SDS011;2383;48.632;10.156;2023-07-13T01:15:02;6.10;;;3.15;;
4738;SDS011;2383;48.632;10.156;2023-07-13T01:19:09;7.20;;;3.40;;
4738;SDS011;2383;48.632;10.156;2023-07-13T01:23:27;11.18;;;3.63;;
4738;SDS011;2383;48.632;10.156;2023-07-13T01:27:30;8.80;;;4.28;;
4738;SDS011;2383;48.632;10.156;2023-07-13T01:31:31;14.50;;;4.60;;
4738;SDS011;2383;48.632;10.156;2023-07-13T01:35:34;9.75;;;4.20;;
4738;SDS011;2383;48.632;10.156;2023-07-13T01:39:36;14.88;;;3.75;;
4738;SDS011;2383;48.632;10.156;2023-07-13T01:43:38;7.22;;;3.22;;
4738;SDS011;2383;48.632;10.156;2023-07-13T01:47:41;4.50;;;2.13;;
4738;SDS011;2383;48.632;10.156;2023-07-13T01:51:43;4.53;;;1.70;;
4738;SDS011;2383;48.632;10.156;2023-07-13T01:55:45;3.67;;;1.83;;
4738;SDS011;2383;48.632;10.156;2023-07-13T01:59:48;6.68;;;1.60;;
4738;SDS011;2383;48.632;10.156;2023-07-13T02:03:49;4.55;;;1.77;;
4738;SDS011;2383;48.632;10.156;2023-07-13T02:07:54;4.60;;;1.45;;
4738;SDS011;2383;48.632;10.156;2023-07-13T02:11:56;3.75;;;1.67;;
4738;SDS011;2383;48.632;10.156;2023-07-13T02:16:04;3.95;;;1.52;;
4738;SDS011;2383;48.632;10.156;2023-07-13T02:20:08;3.22;;;1.55;;
4738;SDS011;2383;48.632;10.156;2023-07-13T02:24:11;5.95;;;1.52;;
4738;SDS011;2383;48.632;10.156;2023-07-13T02:28:18;4.35;;;1.40;;
4738;SDS011;2383;48.632;10.156;2023-07-13T02:32:21;3.10;;;1.20;;
4738;SDS011;2383;48.632;10.156;2023-07-13T02:36:25;2.67;;;1.58;;
4738;SDS011;2383;48.632;10.156;2023-07-13T02:40:27;5.15;;;1.67;;
4738;SDS011;2383;48.632;10.156;2023-07-13T02:44:29;6.93;;;1.50;;
4738;SDS011;2383;48.632;10.156;2023-07-13T02:48:31;2.92;;;1.60;;
4738;SDS011;2383;48.632;10.156;2023-07-13T02:52:33;2.03;;;1.20;;
4738;SDS011;2383;48.632;10.156;2023-07-13T02:56:35;8.13;;;1.60;;
4738;SDS011;2383;48.632;10.156;2023-07-13T03:00:38;2.22;;;1.40;;
4738;SDS011;2383;48.632;10.156;2023-07-13T03:04:42;3.10;;;1.20;;
4738;SDS011;2383;48.632;10.156;2023-07-13T03:08:45;3.00;;;1.50;;
4738;SDS011;2383;48.632;10.156;2023-07-13T03:12:47;3.45;;;1.38;;
4738;SDS011;2383;48.632;10.156;2023-07-13T03:16:56;2.35;;;1.80;;
4738;SDS011;2383;48.632;10.156;2023-07-13T03:21:01;4.93;;;1.70;;
4738;SDS011;2383;48.632;10.156;2023-07-13T03:25:04;4.72;;;1.42;;
4738;SDS011;2383;48.632;10.156;2023-07-13T03:29:07;9.00;;;2.15;;
4738;SDS011;2383;48.632;10.156;2023-07-13T03:33:09;3.88;;;1.50;;
4738;SDS011;2383;48.632;10.156;2023-07-13T03:37:11;7.35;;;1.88;;
4738;SDS011;2383;48.632;10.156;2023-07-13T03:41:15;4.68;;;1.30;;
4738;SDS011;2383;48.632;10.156;2023-07-13T03:45:19;5.13;;;1.20;;
4738;SDS011;2383;48.632;10.156;2023-07-13T03:49:21;3.63;;;1.58;;
4738;SDS011;2383;48.632;10.156;2023-07-13T03:53:23;3.05;;;1.50;;
4738;SDS011;2383;48.632;10.156;2023-07-13T03:57:25;3.78;;;1.40;;
4738;SDS011;2383;48.632;10.156;2023-07-13T04:01:27;2.80;;;1.42;;
4738;SDS011;2383;48.632;10.156;2023-07-13T04:05:29;4.80;;;1.42;;
4738;SDS011;2383;48.632;10.156;2023-07-13T04:09:32;4.53;;;1.60;;
4738;SDS011;2383;48.632;10.156;2023-07-13T04:13:34;3.78;;;1.58;;
4738;SDS011;2383;48.632;10.156;2023-07-13T04:17:36;2.28;;;1.52;;
4738;SDS011;2383;48.632;10.156;2023-07-13T04:21:38;5.32;;;1.73;;
4738;SDS011;2383;48.632;10.156;2023-07-13T04:25:43;10.57;;;1.85;;
4738;SDS011;2383;48.632;10.156;2023-07-13T04:29:50;3.55;;;1.48;;
4738;SDS011;2383;48.632;10.156;2023-07-13T04:33:53;2.85;;;1.50;;
4738;SDS011;2383;48.632;10.156;2023-07-13T04:37:55;4.68;;;1.50;;
4738;SDS011;2383;48.632;10.156;2023-07-13T04:41:57;4.93;;;1.50;;
4738;SDS011;2383;48.632;10.156;2023-07-13T04:46:09;2.28;;;1.55;;
4738;SDS011;2383;48.632;10.156;2023-07-13T04:50:13;2.28;;;1.60;;
4738;SDS011;2383;48.632;10.156;2023-07-13T04:54:20;4.32;;;2.00;;
4738;SDS011;2383;48.632;10.156;2023-07-13T04:58:23;4.47;;;1.80;;
4738;SDS011;2383;48.632;10.156;2023-07-13T05:02:26;4.28;;;1.70;;
4738;SDS011;2383;48.632;10.156;2023-07-13T05:06:29;5.38;;;1.58;;
4738;SDS011;2383;48.632;10.156;2023-07-13T05:10:33;4.10;;;1.55;;
4738;SDS011;2383;48.632;10.156;2023-07-13T05:14:36;4.25;;;1.83;;
4738;SDS011;2383;48.632;10.156;2023-07-13T05:18:38;5.50;;;1.88;;
4738;SDS011;2383;48.632;10.156;2023-07-13T05:22:44;4.88;;;1.90;;
4738;SDS011;2383;48.632;10.156;2023-07-13T05:26:48;3.05;;;1.38;;
4738;SDS011;2383;48.632;10.156;2023-07-13T05:30:50;3.58;;;1.95;;
4738;SDS011;2383;48.632;10.156;2023-07-13T05:34:52;7.40;;;2.10;;
4738;SDS011;2383;48.632;10.156;2023-07-13T05:38:54;3.67;;;1.63;;
4738;SDS011;2383;48.632;10.156;2023-07-13T05:42:56;3.97;;;1.80;;
4738;SDS011;2383;48.632;10.156;2023-07-13T05:46:58;7.32;;;2.03;;
4738;SDS011;2383;48.632;10.156;2023-07-13T05:51:00;4.63;;;1.92;;
4738;SDS011;2383;48.632;10.156;2023-07-13T05:55:03;6.13;;;1.63;;
4738;SDS011;2383;48.632;10.156;2023-07-13T05:59:05;8.13;;;2.40;;
4738;SDS011;2383;48.632;10.156;2023-07-13T06:03:07;4.72;;;1.77;;
4738;SDS011;2383;48.632;10.156;2023-07-13T06:07:09;6.45;;;1.90;;
4738;SDS011;2383;48.632;10.156;2023-07-13T06:11:12;6.90;;;1.80;;
4738;SDS011;2383;48.632;10.156;2023-07-13T06:15:17;3.67;;;1.75;;
4738;SDS011;2383;48.632;10.156;2023-07-13T06:19:19;5.35;;;1.65;;
4738;SDS011;2383;48.632;10.156;2023-07-13T06:23:22;3.60;;;1.52;;
4738;SDS011;2383;48.632;10.156;2023-07-13T06:27:24;2.58;;;1.73;;
4738;SDS011;2383;48.632;10.156;2023-07-13T06:31:26;3.60;;;1.60;;
4738;SDS011;2383;48.632;10.156;2023-07-13T06:35:28;5.93;;;1.83;;
4738;SDS011;2383;48.632;10.156;2023-07-13T06:39:30;6.38;;;1.80;;
4738;SDS011;2383;48.632;10.156;2023-07-13T06:43:33;3.67;;;1.85;;
4738;SDS011;2383;48.632;10.156;2023-07-13T06:47:35;5.13;;;1.65;;
4738;SDS011;2383;48.632;10.156;2023-07-13T06:51:37;5.43;;;1.70;;
4738;SDS011;2383;48.632;10.156;2023-07-13T06:55:39;2.67;;;1.67;;
4738;SDS011;2383;48.632;10.156;2023-07-13T06:59:41;6.13;;;1.67;;
4738;SDS011;2383;48.632;10.156;2023-07-13T07:03:43;5.35;;;1.65;;
4738;SDS011;2383;48.632;10.156;2023-07-13T07:07:46;5.18;;;1.83;;
4738;SDS011;2383;48.632;10.156;2023-07-13T07:11:48;3.40;;;1.63;;
4738;SDS011;2383;48.632;10.156;2023-07-13T07:16:04;3.20;;;1.80;;
4738;SDS011;2383;48.632;10.156;2023-07-13T07:20:06;3.92;;;1.33;;
4738;SDS011;2383;48.632;10.156;2023-07-13T07:24:09;2.15;;;1.30;;
4738;SDS011;2383;48.632;10.156;2023-07-13T07:28:12;4.72;;;1.40;;
4738;SDS011;2383;48.632;10.156;2023-07-13T07:32:39;3.30;;;1.33;;
4738;SDS011;2383;48.632;10.156;2023-07-13T07:36:44;3.90;;;1.20;;
4738;SDS011;2383;48.632;10.156;2023-07-13T07:40:49;2.63;;;1.40;;
4738;SDS011;2383;48.632;10.156;2023-07-13T07:44:54;2.55;;;1.40;;
4738;SDS011;2383;48.632;10.156;2023-07-13T07:48:56;2.83;;;1.50;;
4738;SDS011;2383;48.632;10.156;2023-07-13T07:52:58;3.55;;;1.20;;
4738;SDS011;2383;48.632;10.156;2023-07-13T07:57:00;4.45;;;1.58;;
4738;SDS011;2383;48.632;10.156;2023-07-13T08:01:22;2.58;;;1.33;;
4738;SDS011;2383;48.632;10.156;2023-07-13T08:05:27;2.83;;;1.42;;
4738;SDS011;2383;48.632;10.156;2023-07-13T08:09:32;2.22;;;1.10;;
4738;SDS011;2383;48.632;10.156;2023-07-13T08:13:34;3.05;;;1.15;;
4738;SDS011;2383;48.632;10.156;2023-07-13T08:17:37;2.90;;;1.25;;
4738;SDS011;2383;48.632;10.156;2023-07-13T08:21:39;3.33;;;1.50;;
4738;SDS011;2383;48.632;10.156;2023-07-13T08:25:41;4.95;;;1.20;;
4738;SDS011;2383;48.632;10.156;2023-07-13T08:29:43;2.15;;;1.20;;
4738;SDS011;2383;48.632;10.156;2023-07-13T08:33:45;2.47;;;1.08;;
4738;SDS011;2383;48.632;10.156;2023-07-13T08:37:47;2.40;;;1.10;;
4738;SDS011;2383;48.632;10.156;2023-07-13T08:41:51;2.75;;;1.13;;
4738;SDS011;2383;48.632;10.156;2023-07-13T08:46:07;2.17;;;1.10;;
4738;SDS011;2383;48.632;10.156;2023-07-13T08:50:16;4.68;;;1.15;;
4738;SDS011;2383;48.632;10.156;2023-07-13T08:54:26;1.52;;;0.98;;
4738;SDS011;2383;48.632;10.156;2023-07-13T08:58:38;3.58;;;1.10;;
4738;SDS011;2383;48.632;10.156;2023-07-13T09:02:45;3.67;;;1.13;;
4738;SDS011;2383;48.632;10.156;2023-07-13T09:11:56;2.75;;;1.15;;
4738;SDS011;2383;48.632;10.156;2023-07-13T09:16:11;3.45;;;1.10;;
4738;SDS011;2383;48.632;10.156;2023-07-13T09:20:17;5.55;;;1.55;;
4738;SDS011;2383;48.632;10.156;2023-07-13T09:28:59;5.13;;;1.27;;
4738;SDS011;2383;48.632;10.156;2023-07-13T09:33:11;3.80;;;1.30;;
4738;SDS011;2383;48.632;10.156;2023-07-13T09:37:13;4.30;;;1.13;;
4738;SDS011;2383;48.632;10.156;2023-07-13T09:41:20;3.30;;;1.40;;
4738;SDS011;2383;48.632;10.156;2023-07-13T09:45:43;6.53;;;1.40;;
4738;SDS011;2383;48.632;10.156;2023-07-13T09:49:53;3.15;;;1.13;;
4738;SDS011;2383;48.632;10.156;2023-07-13T09:54:17;4.07;;;1.70;;
4738;SDS011;2383;48.632;10.156;2023-07-13T09:58:23;5.88;;;1.33;;
4738;SDS011;2383;48.632;10.156;2023-07-13T10:02:30;3.72;;;1.92;;
4738;SDS011;2383;48.632;10.156;2023-07-13T10:06:35;2.78;;;1.20;;
4738;SDS011;2383;48.632;10.156;2023-07-13T10:10:37;3.53;;;1.25;;
4738;SDS011;2383;48.632;10.156;2023-07-13T10:14:39;3.42;;;1.42;;
4738;SDS011;2383;48.632;10.156;2023-07-13T10:18:47;1.85;;;1.15;;
4738;SDS011;2383;48.632;10.156;2023-07-13T10:27:03;2.80;;;1.40;;
4738;SDS011;2383;48.632;10.156;2023-07-13T10:31:08;4.13;;;1.30;;
4738;SDS011;2383;48.632;10.156;2023-07-13T10:35:15;4.93;;;1.30;;
4738;SDS011;2383;48.632;10.156;2023-07-13T10:39:21;3.38;;;1.30;;
4738;SDS011;2383;48.632;10.156;2023-07-13T10:43:27;2.92;;;1.20;;
4738;SDS011;2383;48.632;10.156;2023-07-13T10:47:33;5.40;;;1.77;;
4738;SDS011;2383;48.632;10.156;2023-07-13T10:51:35;3.30;;;1.20;;
4738;SDS011;2383;48.632;10.156;2023-07-13T11:00:35;1.67;;;1.15;;
4738;SDS011;2383;48.632;10.156;2023-07-13T11:04:19;5.95;;;1.60;;
4738;SDS011;2383;48.632;10.156;2023-07-13T11:16:48;3.33;;;1.50;;
4738;SDS011;2383;48.632;10.156;2023-07-13T11:20:51;2.38;;;1.23;;
4738;SDS011;2383;48.632;10.156;2023-07-13T11:24:57;4.97;;;1.38;;
4738;SDS011;2383;48.632;10.156;2023-07-13T11:29:27;4.15;;;1.30;;
4738;SDS011;2383;48.632;10.156;2023-07-13T11:37:42;2.30;;;1.38;;
4738;SDS011;2383;48.632;10.156;2023-07-13T11:41:52;3.45;;;1.35;;
4738;SDS011;2383;48.632;10.156;2023-07-13T11:46:12;2.22;;;1.30;;
4738;SDS011;2383;48.632;10.156;2023-07-13T11:50:21;6.13;;;1.40;;
4738;SDS011;2383;48.632;10.156;2023-07-13T11:54:29;3.05;;;1.55;;
4738;SDS011;2383;48.632;10.156;2023-07-13T11:58:32;2.25;;;1.10;;
4738;SDS011;2383;48.632;10.156;2023-07-13T12:02:36;2.83;;;1.02;;
4738;SDS011;2383;48.632;10.156;2023-07-13T12:06:42;2.45;;;1.45;;
4738;SDS011;2383;48.632;10.156;2023-07-13T12:10:45;2.13;;;1.15;;
4738;SDS011;2383;48.632;10.156;2023-07-13T12:14:52;4.18;;;1.30;;
4738;SDS011;2383;48.632;10.156;2023-07-13T12:18:54;4.38;;;1.33;;
4738;SDS011;2383;48.632;10.156;2023-07-13T12:22:58;3.38;;;1.40;;
4738;SDS011;2383;48.632;10.156;2023-07-13T12:27:03;3.17;;;1.30;;
4738;SDS011;2383;48.632;10.156;2023-07-13T12:31:07;4.85;;;1.65;;
4738;SDS011;2383;48.632;10.156;2023-07-13T12:35:29;5.47;;;1.50;;
4738;SDS011;2383;48.632;10.156;2023-07-13T12:39:47;3.30;;;1.30;;
4738;SDS011;2383;48.632;10.156;2023-07-13T12:43:51;5.75;;;1.42;;
4738;SDS011;2383;48.632;10.156;2023-07-13T12:47:54;3.88;;;1.83;;
4738;SDS011;2383;48.632;10.156;2023-07-13T12:52:09;2.50;;;1.20;;
4738;SDS011;2383;48.632;10.156;2023-07-13T12:56:21;2.80;;;1.40;;
4738;SDS011;2383;48.632;10.156;2023-07-13T13:04:27;3.83;;;1.35;;
4738;SDS011;2383;48.632;10.156;2023-07-13T13:08:33;2.60;;;1.30;;
4738;SDS011;2383;48.632;10.156;2023-07-13T13:12:37;3.53;;;1.55;;
4738;SDS011;2383;48.632;10.156;2023-07-13T13:16:43;1.95;;;1.33;;
4738;SDS011;2383;48.632;10.156;2023-07-13T13:20:50;3.72;;;1.20;;
4738;SDS011;2383;48.632;10.156;2023-07-13T13:24:53;2.53;;;1.20;;
4738;SDS011;2383;48.632;10.156;2023-07-13T13:28:55;3.10;;;1.33;;
4738;SDS011;2383;48.632;10.156;2023-07-13T13:32:57;4.95;;;1.33;;
4738;SDS011;2383;48.632;10.156;2023-07-13T13:37:00;1.67;;;1.08;;
4738;SDS011;2383;48.632;10.156;2023-07-13T13:41:02;7.85;;;1.60;;
4738;SDS011;2383;48.632;10.156;2023-07-13T13:45:05;2.03;;;1.08;;
4738;SDS011;2383;48.632;10.156;2023-07-13T13:49:13;1.88;;;1.20;;
4738;SDS011;2383;48.632;10.156;2023-07-13T13:53:37;2.55;;;1.05;;
4738;SDS011;2383;48.632;10.156;2023-07-13T13:57:40;2.85;;;1.25;;
4738;SDS011;2383;48.632;10.156;2023-07-13T14:01:43;1.95;;;1.27;;
4738;SDS011;2383;48.632;10.156;2023-07-13T14:05:47;3.85;;;1.63;;
4738;SDS011;2383;48.632;10.156;2023-07-13T14:09:51;2.50;;;1.00;;
4738;SDS011;2383;48.632;10.156;2023-07-13T14:13:55;3.28;;;1.30;;
4738;SDS011;2383;48.632;10.156;2023-07-13T14:18:00;4.65;;;1.35;;
4738;SDS011;2383;48.632;10.156;2023-07-13T14:22:02;2.20;;;1.23;;
4738;SDS011;2383;48.632;10.156;2023-07-13T14:26:09;3.33;;;1.15;;
4738;SDS011;2383;48.632;10.156;2023-07-13T14:30:20;2.15;;;1.13;;
4738;SDS011;2383;48.632;10.156;2023-07-13T14:34:23;3.25;;;1.30;;
4738;SDS011;2383;48.632;10.156;2023-07-13T14:38:25;2.33;;;1.30;;
4738;SDS011;2383;48.632;10.156;2023-07-13T14:42:27;3.15;;;1.20;;
4738;SDS011;2383;48.632;10.156;2023-07-13T14:46:30;6.25;;;1.63;;
4738;SDS011;2383;48.632;10.156;2023-07-13T14:50:34;3.70;;;1.40;;
4738;SDS011;2383;48.632;10.156;2023-07-13T14:54:37;2.63;;;1.40;;
4738;SDS011;2383;48.632;10.156;2023-07-13T14:58:44;8.63;;;1.85;;
4738;SDS011;2383;48.632;10.156;2023-07-13T15:02:51;4.18;;;1.92;;
4738;SDS011;2383;48.632;10.156;2023-07-13T15:07:01;1.95;;;1.42;;
4738;SDS011;2383;48.632;10.156;2023-07-13T15:11:07;2.22;;;1.33;;
4738;SDS011;2383;48.632;10.156;2023-07-13T15:15:09;2.28;;;1.40;;
4738;SDS011;2383;48.632;10.156;2023-07-13T15:19:12;2.83;;;1.10;;
4738;SDS011;2383;48.632;10.156;2023-07-13T15:23:14;3.08;;;1.20;;
4738;SDS011;2383;48.632;10.156;2023-07-13T15:27:17;2.50;;;1.45;;
4738;SDS011;2383;48.632;10.156;2023-07-13T15:35:25;1.58;;;1.27;;
4738;SDS011;2383;48.632;10.156;2023-07-13T15:39:28;4.50;;;1.50;;
4738;SDS011;2383;48.632;10.156;2023-07-13T15:43:32;3.25;;;1.60;;
4738;SDS011;2383;48.632;10.156;2023-07-13T15:47:35;5.00;;;1.23;;
4738;SDS011;2383;48.632;10.156;2023-07-13T15:51:39;3.40;;;1.40;;
4738;SDS011;2383;48.632;10.156;2023-07-13T15:55:41;2.85;;;1.48;;
4738;SDS011;2383;48.632;10.156;2023-07-13T15:59:43;1.98;;;1.35;;
4738;SDS011;2383;48.632;10.156;2023-07-13T16:03:46;4.10;;;1.20;;
4738;SDS011;2383;48.632;10.156;2023-07-13T16:07:49;3.33;;;1.50;;
4738;SDS011;2383;48.632;10.156;2023-07-13T16:11:52;4.13;;;1.58;;
4738;SDS011;2383;48.632;10.156;2023-07-13T16:15:58;2.65;;;1.35;;
4738;SDS011;2383;48.632;10.156;2023-07-13T16:20:00;4.35;;;1.20;;
4738;SDS011;2383;48.632;10.156;2023-07-13T16:24:02;2.83;;;1.33;;
4738;SDS011;2383;48.632;10.156;2023-07-13T16:28:06;4.53;;;1.50;;
4738;SDS011;2383;48.632;10.156;2023-07-13T16:32:12;4.30;;;1.33;;
4738;SDS011;2383;48.632;10.156;2023-07-13T16:36:15;2.97;;;1.33;;
4738;SDS011;2383;48.632;10.156;2023-07-13T16:44:25;2.95;;;1.30;;
4738;SDS011;2383;48.632;10.156;2023-07-13T16:48:29;6.47;;;1.60;;
4738;SDS011;2383;48.632;10.156;2023-07-13T16:52:31;2.63;;;1.40;;
4738;SDS011;2383;48.632;10.156;2023-07-13T16:56:33;3.50;;;1.10;;
4738;SDS011;2383;48.632;10.156;2023-07-13T17:00:36;1.88;;;1.23;;
4738;SDS011;2383;48.632;10.156;2023-07-13T17:04:39;6.13;;;1.80;;
4738;SDS011;2383;48.632;10.156;2023-07-13T17:08:42;3.50;;;1.48;;
4738;SDS011;2383;48.632;10.156;2023-07-13T17:12:46;3.17;;;1.55;;
4738;SDS011;2383;48.632;10.156;2023-07-13T17:16:50;6.32;;;1.75;;
4738;SDS011;2383;48.632;10.156;2023-07-13T17:20:55;4.20;;;1.42;;
4738;SDS011;2383;48.632;10.156;2023-07-13T17:24:57;2.65;;;1.45;;
4738;SDS011;2383;48.632;10.156;2023-07-13T17:29:00;3.08;;;1.50;;
4738;SDS011;2383;48.632;10.156;2023-07-13T17:33:03;3.40;;;1.70;;
4738;SDS011;2383;48.632;10.156;2023-07-13T17:37:10;1.83;;;1.17;;
4738;SDS011;2383;48.632;10.156;2023-07-13T17:41:17;4.43;;;1.63;;
4738;SDS011;2383;48.632;10.156;2023-07-13T17:45:29;2.88;;;1.55;;
4738;SDS011;2383;48.632;10.156;2023-07-13T17:49:33;3.10;;;1.30;;
4738;SDS011;2383;48.632;10.156;2023-07-13T17:53:36;2.95;;;1.35;;
4738;SDS011;2383;48.632;10.156;2023-07-13T17:57:39;2.30;;;1.52;;
4738;SDS011;2383;48.632;10.156;2023-07-13T18:01:42;2.60;;;1.33;;
4738;SDS011;2383;48.632;10.156;2023-07-13T18:05:47;2.40;;;1.40;;
4738;SDS011;2383;48.632;10.156;2023-07-13T18:09:50;3.20;;;1.25;;
4738;SDS011;2383;48.632;10.156;2023-07-13T18:13:52;3.22;;;1.58;;
4738;SDS011;2383;48.632;10.156;2023-07-13T18:17:54;4.15;;;1.40;;
4738;SDS011;2383;48.632;10.156;2023-07-13T18:21:59;2.38;;;1.63;;
4738;SDS011;2383;48.632;10.156;2023-07-13T18:26:04;3.83;;;1.40;;
4738;SDS011;2383;48.632;10.156;2023-07-13T18:30:15;2.70;;;1.25;;
4738;SDS011;2383;48.632;10.156;2023-07-13T18:34:18;4.80;;;1.60;;
4738;SDS011;2383;48.632;10.156;2023-07-13T18:38:21;3.15;;;1.40;;
4738;SDS011;2383;48.632;10.156;2023-07-13T18:42:28;8.30;;;1.48;;
4738;SDS011;2383;48.632;10.156;2023-07-13T18:46:30;1.60;;;1.25;;
4738;SDS011;2383;48.632;10.156;2023-07-13T18:50:36;5.47;;;1.45;;
4738;SDS011;2383;48.632;10.156;2023-07-13T18:54:41;4.05;;;1.73;;
4738;SDS011;2383;48.632;10.156;2023-07-13T18:58:43;3.50;;;1.60;;
4738;SDS011;2383;48.632;10.156;2023-07-13T19:02:46;7.55;;;1.48;;
4738;SDS011;2383;48.632;10.156;2023-07-13T19:06:48;4.28;;;2.17;;
4738;SDS011;2383;48.632;10.156;2023-07-13T19:10:51;6.95;;;3.40;;
4738;SDS011;2383;48.632;10.156;2023-07-13T19:14:54;4.60;;;2.85;;
4738;SDS011;2383;48.632;10.156;2023-07-13T19:18:56;4.60;;;2.30;;
4738;SDS011;2383;48.632;10.156;2023-07-13T19:23:00;3.97;;;2.20;;
4738;SDS011;2383;48.632;10.156;2023-07-13T19:27:04;4.68;;;1.88;;
4738;SDS011;2383;48.632;10.156;2023-07-13T19:31:14;5.30;;;1.52;;
4738;SDS011;2383;48.632;10.156;2023-07-13T19:35:23;5.63;;;1.70;;
4738;SDS011;2383;48.632;10.156;2023-07-13T19:39:28;3.92;;;1.80;;
4738;SDS011;2383;48.632;10.156;2023-07-13T19:43:42;2.40;;;1.58;;
4738;SDS011;2383;48.632;10.156;2023-07-13T19:47:44;3.25;;;1.52;;
4738;SDS011;2383;48.632;10.156;2023-07-13T19:51:47;4.32;;;1.95;;
4738;SDS011;2383;48.632;10.156;2023-07-13T19:55:49;4.28;;;1.80;;
4738;SDS011;2383;48.632;10.156;2023-07-13T19:59:51;5.38;;;1.70;;
4738;SDS011;2383;48.632;10.156;2023-07-13T20:03:55;3.60;;;1.48;;
4738;SDS011;2383;48.632;10.156;2023-07-13T20:07:58;3.13;;;1.65;;
4738;SDS011;2383;48.632;10.156;2023-07-13T20:12:01;2.45;;;1.75;;
4738;SDS011;2383;48.632;10.156;2023-07-13T20:16:04;3.58;;;1.92;;
4738;SDS011;2383;48.632;10.156;2023-07-13T20:24:25;3.75;;;1.80;;
4738;SDS011;2383;48.632;10.156;2023-07-13T20:28:28;2.90;;;1.50;;
4738;SDS011;2383;48.632;10.156;2023-07-13T20:32:37;4.43;;;1.60;;
4738;SDS011;2383;48.632;10.156;2023-07-13T20:36:40;2.13;;;1.30;;
4738;SDS011;2383;48.632;10.156;2023-07-13T20:40:42;5.65;;;2.03;;
4738;SDS011;2383;48.632;10.156;2023-07-13T20:44:45;3.65;;;1.63;;
4738;SDS011;2383;48.632;10.156;2023-07-13T20:48:48;4.57;;;1.90;;
4738;SDS011;2383;48.632;10.156;2023-07-13T20:52:53;2.53;;;1.60;;
4738;SDS011;2383;48.632;10.156;2023-07-13T20:56:59;4.85;;;1.80;;
4738;SDS011;2383;48.632;10.156;2023-07-13T21:01:01;3.78;;;1.33;;
4738;SDS011;2383;48.632;10.156;2023-07-13T21:05:09;5.97;;;1.80;;
4738;SDS011;2383;48.632;10.156;2023-07-13T21:09:18;3.65;;;1.70;;
4738;SDS011;2383;48.632;10.156;2023-07-13T21:13:21;5.07;;;2.00;;
4738;SDS011;2383;48.632;10.156;2023-07-13T21:17:23;4.22;;;1.63;;
4738;SDS011;2383;48.632;10.156;2023-07-13T21:21:25;12.88;;;2.33;;
4738;SDS011;2383;48.632;10.156;2023-07-13T21:25:28;2.72;;;1.80;;
4738;SDS011;2383;48.632;10.156;2023-07-13T21:29:32;4.07;;;1.52;;
4738;SDS011;2383;48.632;10.156;2023-07-13T21:33:34;6.05;;;1.58;;
4738;SDS011;2383;48.632;10.156;2023-07-13T21:37:38;7.80;;;2.30;;
4738;SDS011;2383;48.632;10.156;2023-07-13T21:41:40;4.82;;;1.50;;
4738;SDS011;2383;48.632;10.156;2023-07-13T21:45:44;2.92;;;1.80;;
4738;SDS011;2383;48.632;10.156;2023-07-13T21:49:47;4.15;;;1.70;;
4738;SDS011;2383;48.632;10.156;2023-07-13T21:53:49;3.65;;;1.98;;
4738;SDS011;2383;48.632;10.156;2023-07-13T21:57:53;3.90;;;1.95;;
4738;SDS011;2383;48.632;10.156;2023-07-13T22:01:56;2.67;;;1.80;;
4738;SDS011;2383;48.632;10.156;2023-07-13T22:06:00;2.65;;;1.75;;
4738;SDS011;2383;48.632;10.156;2023-07-13T22:10:04;2.70;;;1.73;;
4738;SDS011;2383;48.632;10.156;2023-07-13T22:14:13;2.90;;;1.73;;
4738;SDS011;2383;48.632;10.156;2023-07-13T22:18:17;3.13;;;1.88;;
4738;SDS011;2383;48.632;10.156;2023-07-13T22:22:41;7.30;;;2.20;;
4738;SDS011;2383;48.632;10.156;2023-07-13T22:26:43;7.85;;;2.00;;
4738;SDS011;2383;48.632;10.156;2023-07-13T22:30:46;5.07;;;1.80;;
4738;SDS011;2383;48.632;10.156;2023-07-13T22:34:51;5.55;;;2.00;;
4738;SDS011;2383;48.632;10.156;2023-07-13T22:38:54;2.58;;;1.75;;
4738;SDS011;2383;48.632;10.156;2023-07-13T22:42:56;3.00;;;1.98;;
4738;SDS011;2383;48.632;10.156;2023-07-13T22:46:58;8.98;;;1.88;;
4738;SDS011;2383;48.632;10.156;2023-07-13T22:51:00;4.32;;;1.95;;
4738;SDS011;2383;48.632;10.156;2023-07-13T22:55:04;3.55;;;1.90;;
4738;SDS011;2383;48.632;10.156;2023-07-13T22:59:13;4.20;;;1.83;;
4738;SDS011;2383;48.632;10.156;2023-07-13T23:03:15;3.17;;;2.00;;
4738;SDS011;2383;48.632;10.156;2023-07-13T23:07:18;6.85;;;1.92;;
4738;SDS011;2383;48.632;10.156;2023-07-13T23:11:24;3.55;;;2.00;;
4738;SDS011;2383;48.632;10.156;2023-07-13T23:15:26;3.45;;;2.00;;
4738;SDS011;2383;48.632;10.156;2023-07-13T23:19:30;4.80;;;2.00;;
4738;SDS011;2383;48.632;10.156;2023-07-13T23:23:34;3.60;;;1.55;;
4738;SDS011;2383;48.632;10.156;2023-07-13T23:27:36;6.75;;;1.67;;
4738;SDS011;2383;48.632;10.156;2023-07-13T23:31:38;2.70;;;1.63;;
4738;SDS011;2383;48.632;10.156;2023-07-13T23:35:40;4.20;;;1.60;;
4738;SDS011;2383;48.632;10.156;2023-07-13T23:39:42;3.33;;;1.58;;
4738;SDS011;2383;48.632;10.156;2023-07-13T23:43:44;3.08;;;1.40;;
4738;SDS011;2383;48.632;10.156;2023-07-13T23:47:47;4.13;;;1.75;;
4738;SDS011;2383;48.632;10.156;2023-07-13T23:51:51;1.92;;;1.30;;
4738;SDS011;2383;48.632;10.156;2023-07-13T23:55:56;3.83;;;1.58;;
4738;SDS011;2383;48.632;10.156;2023-07-13T23:59:58;3.53;;;1.65;;
